Latest Weather Observations for Maatsuyker Island

IDT60801

Issued at 3:51 am EST Monday 27 September 2021 (issued every 10 minutes, with the page automatically refreshed every 10 minutes)

About weather observations | Map of weather stations | Latest weather observations for TAS | Other Formats
Station Details ID: 094041 Name: MAATSUYKER ISLAND LIGHTHOUSE Lat: -43.66 Lon: 146.27 Height: 146.5 m
Data from the previous 72 hours. | See also: Recent months at Maatsuyker Island
Date/Time
EST
Temp
°C
App
Temp
°C
Dew
Point
°C
Rel
Hum
%
Delta-T
°C
Wind Press
QNH
hPa
Press
MSL
hPa
Rain since
9am
mm
Dir  Spd
km/h
Gust
km/h
Spd
kts
Gust
kts
27/03:30am 7.6 0.8 4.9 83 1.2 NNW 30 39 16 21 1020.8 - 0.4
27/03:00am 7.7 0.9 5.0 83 1.2 NW 30 39 16 21 1021.2 1021.4 0.4
27/02:30am 7.8 1.0 5.1 83 1.2 NNW 30 39 16 21 1021.7 - 0.4
27/02:00am 8.0 0.6 4.9 81 1.4 NNW 33 46 18 25 1021.9 - 0.4
27/01:30am 7.8 0.9 4.7 81 1.4 NNW 30 35 16 19 1022.3 - 0.4
27/01:00am 8.0 0.2 4.8 80 1.4 NW 35 46 19 25 1022.5 - 0.4
27/12:30am 8.0 2.0 5.1 82 1.3 NW 26 37 14 20 1022.8 - 0.4
27/12:00am 7.7 1.3 5.0 83 1.2 NW 28 37 15 20 1022.9 1023.1 0.4
 
Date/Time
EST
Temp
°C
App
Temp
°C
Dew
Point
°C
Rel
Hum
%
Delta-T
°C
Wind Press
QNH
hPa
Press
MSL
hPa
Rain since
9am
mm
Dir  Spd
km/h
Gust
km/h
Spd
kts
Gust
kts
26/11:30pm 8.0 1.2 5.1 82 1.3 NW 30 39 16 21 1023.0 - 0.4
26/11:00pm 7.9 1.9 5.4 84 1.1 NNW 26 35 14 19 1023.3 - 0.4
26/10:30pm 7.9 1.5 5.4 84 1.1 NNW 28 39 15 21 1023.5 - 0.4
26/10:00pm 7.9 1.2 5.5 85 1.1 NW 30 39 16 21 1023.7 - 0.4
26/09:30pm 7.9 1.6 5.9 87 0.9 NNW 28 39 15 21 1023.8 - 0.4
26/09:00pm 7.8 1.5 5.8 87 0.9 NW 28 37 15 20 1024.0 1024.1 0.0
26/08:30pm 7.9 3.3 6.5 91 0.6 NW 20 28 11 15 1024.1 - 0.0
26/08:00pm 8.6 2.3 5.9 83 1.2 NNW 28 35 15 19 1024.1 - 0.0
26/07:30pm 8.7 1.6 5.6 81 1.4 NNW 32 46 17 25 1024.1 - 0.0
26/07:00pm 9.0 1.3 5.4 78 1.6 NW 35 44 19 24 1023.9 - 0.0
26/06:30pm 9.0 1.0 5.6 79 1.6 NW 37 48 20 26 1023.9 - 0.0
26/06:00pm 9.0 -0.3 5.0 76 1.8 NW 43 48 23 26 1023.9 1024.0 0.0
26/05:30pm 9.1 0.7 5.5 78 1.6 NW 39 44 21 24 1024.0 - 0.0
26/05:00pm 9.4 -0.4 5.2 75 1.9 NW 46 54 25 29 1023.8 - 0.0
26/04:30pm 9.6 -0.3 4.8 72 2.2 NW 46 54 25 29 1023.7 - 0.0
26/04:00pm 9.5 -1.1 5.1 74 2.0 NW 50 56 27 30 1023.8 - 0.0
26/03:30pm 10.0 0.2 5.4 73 2.1 NW 46 54 25 29 1023.9 - 0.0
26/03:00pm 9.9 0.0 4.7 70 2.3 NW 46 56 25 30 1023.9 1024.0 0.0
26/02:30pm 10.0 0.1 5.0 71 2.3 NW 46 56 25 30 1024.0 - 0.0
26/02:00pm 9.8 0.2 4.6 70 2.3 NW 44 50 24 27 1024.3 - 0.0
26/01:30pm 9.9 0.4 4.7 70 2.3 NW 44 52 24 28 1024.5 - 0.0
26/01:00pm 9.5 0.1 4.7 72 2.2 NW 43 54 23 29 1024.7 - 0.0
26/12:30pm 9.3 -0.3 3.5 67 2.5 NW 43 52 23 28 1025.0 - 0.0
26/12:00pm 8.9 0.2 3.9 71 2.2 NW 39 50 21 27 1025.3 1025.4 0.0
26/11:30am 8.9 -0.1 4.3 73 2.0 NW 41 50 22 27 1025.4 - 0.0
26/11:00am 8.7 0.3 3.5 70 2.3 NW 37 48 20 26 1025.5 - 0.0
26/10:30am 8.5 -0.8 2.9 68 2.4 NW 41 48 22 26 1025.6 - 0.0
26/10:00am 8.2 0.7 3.7 73 2.0 NW 32 43 17 23 1025.9 - 0.0
26/09:30am 8.0 1.4 4.4 78 1.6 NNW 28 39 15 21 1026.0 - 0.0
26/09:00am 7.7 0.7 4.1 78 1.6 NNW 30 37 16 20 1025.9 1026.0 0.6
26/08:30am 6.9 0.2 3.9 81 1.3 NNW 28 33 15 18 1025.8 - 0.6
26/08:00am 6.4 -0.3 3.7 83 1.2 NNW 28 35 15 19 1025.6 - 0.6
26/07:30am 6.1 -0.6 3.8 85 1.0 NNW 28 35 15 19 1025.4 - 0.6
26/07:00am 6.2 -1.3 3.7 84 1.1 NW 32 41 17 22 1025.1 - 0.6
26/06:30am 6.3 0.0 4.0 85 1.0 NNW 26 37 14 20 1024.8 - 0.6
26/06:00am 6.4 -0.2 4.1 85 1.0 NW 28 39 15 21 1024.5 1024.6 0.6
26/05:30am 6.4 -0.6 4.1 85 1.0 NNW 30 41 16 22 1024.4 - 0.6
26/05:00am 6.5 -0.5 4.0 84 1.1 NW 30 37 16 20 1024.1 - 0.6
26/04:30am 6.4 0.1 3.7 83 1.2 NNW 26 35 14 19 1023.9 - 0.6
26/04:00am 6.7 0.0 3.9 82 1.2 NW 28 33 15 18 1023.8 - 0.6
26/03:30am 6.7 0.0 3.5 80 1.4 NW 28 33 15 18 1023.8 - 0.6
26/03:00am 7.0 0.6 3.3 77 1.6 NW 26 33 14 18 1023.6 1023.7 0.6
26/02:30am 7.3 0.7 2.0 69 2.2 W 26 33 14 18 1023.8 - 0.6
26/02:00am 7.4 0.5 2.3 70 2.1 WNW 28 32 15 17 1023.7 - 0.6
26/01:30am 6.7 0.3 1.0 67 2.3 WNW 24 28 13 15 1023.9 - 0.6
26/01:00am 7.1 -0.3 2.0 70 2.1 WNW 30 33 16 18 1023.9 - 0.6
26/12:30am 6.7 0.0 1.6 70 2.1 WNW 26 33 14 18 1023.7 - 0.6
26/12:00am 6.7 0.8 1.6 70 2.1 W 22 28 12 15 1023.5 1023.6 0.6
 
Date/Time
EST
Temp
°C
App
Temp
°C
Dew
Point
°C
Rel
Hum
%
Delta-T
°C
Wind Press
QNH
hPa
Press
MSL
hPa
Rain since
9am
mm
Dir  Spd
km/h
Gust
km/h
Spd
kts
Gust
kts
25/11:30pm 6.5 0.1 0.8 67 2.3 W 24 30 13 16 1023.2 - 0.6
25/11:00pm 6.7 0.4 1.8 71 2.0 W 24 32 13 17 1023.1 - 0.6
25/10:30pm 6.9 -0.1 2.2 72 1.9 W 28 35 15 19 1022.8 - 0.6
25/10:00pm 6.7 0.8 1.8 71 2.0 W 22 32 12 17 1022.8 - 0.4
25/09:30pm 6.5 0.6 1.4 70 2.1 W 22 32 12 17 1022.6 - 0.4
25/09:00pm 6.5 -0.1 1.8 72 1.9 W 26 35 14 19 1022.3 1022.5 0.4
25/08:30pm 6.4 -0.6 2.1 74 1.8 W 28 33 15 18 1022.1 - 0.4
25/08:09pm 6.6 -0.3 2.3 74 1.8 W 28 46 15 25 1021.8 - 0.4
25/08:00pm 6.5 -0.5 2.2 74 1.8 W 28 37 15 20 1021.7 - 0.4
25/07:30pm 6.1 -1.7 2.0 75 1.7 WNW 32 41 17 22 1021.2 - 0.4
25/07:00pm 6.5 0.2 1.6 71 2.0 W 24 30 13 16 1020.8 - 0.4
25/06:30pm 6.6 -1.2 1.7 71 2.0 W 32 41 17 22 1020.3 - 0.4
25/06:00pm 6.2 -1.7 1.1 70 2.0 W 32 43 17 23 1019.9 1020.0 0.4
25/05:30pm 5.9 -1.2 1.4 73 1.8 W 28 39 15 21 1019.5 - 0.4
25/05:00pm 5.4 -3.3 2.2 80 1.3 W 37 46 20 25 1019.0 - 0.4
25/04:54pm 5.3 -3.4 2.0 79 1.3 W 37 46 20 25 1019.1 - 0.4
25/04:30pm 5.4 -2.2 2.8 83 1.1 SW 32 39 17 21 1018.7 - 0.4
25/04:25pm 5.5 -3.9 2.5 81 1.2 W 41 59 22 32 1018.7 - 0.2
25/04:20pm 6.1 -4.7 1.8 74 1.7 W 48 59 26 32 1018.6 - 0.0
25/04:13pm 7.0 -3.4 2.3 72 2.0 WNW 46 52 25 28 1017.8 - 0.0
25/04:00pm 7.1 -0.9 0.3 62 2.7 W 32 43 17 23 1018.1 - 0.0
25/03:49pm 7.4 -0.8 0.4 61 2.8 W 33 39 18 21 1017.9 - 0.0
25/03:42pm 7.3 -1.6 0.5 62 2.7 SW 37 44 20 24 1017.8 - 0.0
25/03:34pm 7.6 -0.6 0.6 61 2.8 W 33 43 18 23 1017.7 - 0.0
25/03:30pm 7.9 -1.1 0.2 58 3.1 SW 37 48 20 26 1017.6 - 0.0
25/03:28pm 7.9 -1.0 0.6 60 2.9 SW 37 48 20 26 1017.6 - 0.0
25/03:00pm 7.6 1.2 0.8 62 2.7 W 24 33 13 18 1017.3 1017.4 0.0
25/02:55pm 8.0 2.6 2.5 68 2.3 W 20 28 11 15 1017.2 - 0.0
25/02:30pm 6.4 -4.8 1.9 73 1.8 SW 50 57 27 31 1017.1 - 0.0
25/02:28pm 6.9 -2.1 2.2 72 1.9 W 39 57 21 31 1017.0 - 0.0
25/02:24pm 7.1 -2.2 0.3 62 2.7 W 39 52 21 28 1016.9 - 0.0
25/02:00pm 8.6 0.1 3.2 69 2.3 WNW 37 46 20 25 1016.2 - 0.0
25/01:48pm 8.6 -0.4 2.6 66 2.5 WNW 39 46 21 25 1016.0 - 0.0
25/01:30pm 7.4 -0.8 0.2 60 2.9 W 33 44 18 24 1016.4 - 0.0
25/01:10pm 7.1 -2.0 1.6 68 2.2 W 39 46 21 25 1015.9 - 0.0
25/01:00pm 6.3 -4.2 1.6 72 1.9 SW 46 59 25 32 1015.9 - 0.0
25/12:57pm 6.9 -3.6 1.4 68 2.2 SW 46 57 25 31 1015.8 - 0.0
25/12:30pm 7.6 -1.3 1.0 63 2.7 W 37 48 20 26 1015.7 - 0.0
25/12:00pm 7.2 -2.9 0.4 62 2.7 W 43 52 23 28 1015.4 1015.6 0.0
25/11:36am 6.3 -2.7 2.2 75 1.7 W 39 57 21 31 1015.1 - 0.0
25/11:30am 6.2 -3.8 2.3 76 1.6 W 44 59 24 32 1015.0 - 0.0
25/11:20am 6.6 -2.6 1.5 70 2.1 W 39 59 21 32 1015.0 - 0.0
25/11:00am 7.3 -0.8 1.2 65 2.5 WSW 33 46 18 25 1014.6 - 0.0
25/10:46am 7.1 -1.4 1.2 66 2.4 WSW 35 54 19 29 1014.4 - 0.0
25/10:30am 6.3 -2.5 1.2 70 2.0 SW 37 46 20 25 1014.2 - 0.0
25/10:01am 6.2 -2.1 -0.3 63 2.5 WSW 33 52 18 28 1013.7 - 0.0
25/10:00am 6.4 -1.8 0.5 66 2.3 WSW 33 50 18 27 1013.7 - 0.0
25/09:49am 6.5 -2.3 1.2 69 2.1 W 37 50 20 27 1013.5 - 0.0
25/09:30am 5.3 -3.1 1.4 76 1.6 SW 35 48 19 26 1013.2 - 0.0
25/09:11am 4.4 -6.2 0.7 77 1.4 SW 46 56 25 30 1013.2 - 0.0
25/09:00am 5.0 -6.0 0.8 74 1.6 W 48 70 26 38 1013.0 1013.1 2.8
25/08:54am 6.3 -2.9 1.4 71 2.0 W 39 69 21 37 1012.7 - 2.8
25/08:30am 5.8 -2.7 0.6 69 2.0 W 35 48 19 26 1012.2 - 2.8
25/08:00am 5.1 -4.6 0.3 71 1.9 W 41 56 22 30 1011.6 - 2.8
25/07:37am 5.4 -4.6 1.3 75 1.6 W 43 54 23 29 1011.3 - 2.8
25/07:33am 5.6 -3.9 1.7 76 1.6 SW 41 54 22 29 1011.2 - 2.8
25/07:30am 5.3 -6.2 -0.3 67 2.1 W 50 63 27 34 1011.1 - 2.8
25/07:01am 4.3 -4.6 0.6 77 1.4 W 37 56 20 30 1010.5 - 2.8
25/07:00am 4.4 -4.9 0.6 76 1.5 WSW 39 56 21 30 1010.6 - 2.8
25/06:58am 4.6 -5.1 0.6 75 1.6 WSW 41 56 22 30 1010.7 - 2.6
25/06:30am 4.3 -6.3 0.5 76 1.5 W 46 61 25 33 1009.8 - 2.6
25/06:24am 4.3 -5.0 0.8 78 1.4 W 39 54 21 29 1009.9 - 2.6
25/06:10am 5.0 -4.6 1.3 77 1.5 WSW 41 67 22 36 1009.5 - 2.6
25/06:00am 5.2 -5.7 1.5 77 1.5 WNW 48 57 26 31 1008.6 1008.7 2.6
25/05:32am 4.6 -3.5 0.9 77 1.4 W 33 54 18 29 1008.6 - 2.6
25/05:30am 4.5 -3.6 1.0 78 1.4 W 33 46 18 25 1008.6 - 2.6
25/05:25am 4.2 -3.9 0.9 79 1.3 W 33 43 18 23 1008.5 - 2.6
25/05:16am 3.8 -5.9 0.5 79 1.3 WSW 41 48 22 26 1008.5 - 2.6
25/05:09am 4.3 -5.8 1.5 82 1.1 SSW 44 63 24 34 1008.4 - 2.6
25/05:07am 4.4 -7.6 1.4 81 1.2 SSW 54 63 29 34 1008.2 - 2.6
25/05:02am 4.9 -5.7 0.9 75 1.6 SW 46 63 25 34 1008.3 - 2.6
25/05:00am 4.9 -5.9 -0.3 69 2.0 W 46 65 25 35 1008.2 - 2.6
25/04:30am 5.0 -6.5 0.2 71 1.9 W 50 70 27 38 1007.1 - 2.6
25/04:14am 4.5 -5.9 -0.1 72 1.8 W 44 67 24 36 1006.8 - 2.6
25/04:13am 4.3 -5.5 -0.5 71 1.8 W 41 50 22 27 1006.8 - 2.6
25/04:07am 3.8 -10.3 -1.4 69 1.9 W 63 82 34 44 1006.8 - 2.6
25/04:06am 3.8 -10.7 -1.4 69 1.9 W 65 82 35 44 1006.9 - 2.4
25/04:04am 5.1 -5.6 -0.1 69 2.0 W 46 83 25 45 1006.8 - 2.4
25/04:00am 5.5 -4.8 0.5 70 2.0 W 44 59 24 32 1006.2 - 2.4
25/03:58am 5.4 -5.3 0.4 70 1.9 W 46 65 25 35 1006.3 - 2.4
25/03:30am 5.0 -5.4 -0.2 69 2.0 W 44 57 24 31 1006.0 - 2.4
25/03:00am 5.0 -7.3 -0.6 67 2.1 W 54 72 29 39 1005.4 1005.5 2.4
25/02:48am 4.5 -7.1 -0.9 68 2.0 W 50 69 27 37 1005.3 - 2.4
25/02:30am 4.5 -7.1 -0.5 70 1.9 W 50 67 27 36 1005.2 - 2.4
25/02:00am 5.2 -6.7 -0.2 68 2.1 WSW 52 74 28 40 1004.5 - 2.4
25/01:34am 4.6 -7.0 -1.0 67 2.1 WSW 50 69 27 37 1004.1 - 2.4
25/01:30am 4.4 -8.6 -1.2 67 2.1 SW 57 72 31 39 1004.2 - 2.4
25/01:20am 5.0 -8.5 0.2 71 1.9 SW 61 72 33 39 1003.8 - 2.4
25/01:03am 4.6 -5.1 0.2 73 1.7 WSW 41 65 22 35 1003.6 - 2.4
25/01:00am 4.4 -5.7 0.2 74 1.6 WSW 43 57 23 31 1003.6 - 2.4
25/12:52am 4.4 -5.8 0.0 73 1.7 W 43 52 23 28 1003.6 - 2.4
25/12:50am 4.4 -9.6 -0.6 70 1.9 WSW 63 82 34 44 1003.7 - 2.4
25/12:47am 4.8 -9.6 -0.8 67 2.1 SW 65 76 35 41 1003.5 - 2.4
25/12:30am 5.1 -7.9 -1.3 63 2.4 W 57 76 31 41 1002.9 - 2.4
25/12:26am 5.0 -8.0 -1.4 63 2.4 W 57 76 31 41 1002.9 - 2.4
25/12:24am 5.0 -8.0 -1.2 64 2.3 W 57 70 31 38 1002.8 - 2.4
25/12:12am 5.4 -5.9 1.0 73 1.7 WSW 50 69 27 37 1002.4 - 2.4
25/12:11am 5.4 -6.0 0.6 71 1.9 WSW 50 63 27 34 1002.4 - 2.4
25/12:02am 4.7 -10.5 0.5 74 1.6 W 70 89 38 48 1001.9 - 2.4
25/12:00am 4.4 -11.2 0.2 74 1.6 W 72 89 39 48 1001.4 1001.5 2.4
 
Date/Time
EST
Temp
°C
App
Temp
°C
Dew
Point
°C
Rel
Hum
%
Delta-T
°C
Wind Press
QNH
hPa
Press
MSL
hPa
Rain since
9am
mm
Dir  Spd
km/h
Gust
km/h
Spd
kts
Gust
kts
24/11:54pm 5.0 -9.9 1.1 76 1.5 W 69 89 37 48 1001.4 - 2.2
24/11:53pm 4.8 -5.8 0.9 76 1.5 W 46 89 25 48 1001.4 - 2.2
24/11:49pm 4.3 -5.4 0.5 76 1.5 W 41 59 22 32 1001.7 - 2.2
24/11:44pm 4.0 -5.7 0.2 76 1.4 WSW 41 52 22 28 1001.8 - 2.2
24/11:35pm 4.1 -9.6 -1.1 69 1.9 SW 61 74 33 40 1001.9 - 2.2
24/11:30pm 5.0 -10.8 -1.2 64 2.3 W 72 93 39 50 1001.7 - 2.2
24/11:27pm 5.2 -10.5 -0.4 67 2.1 W 72 93 39 50 1001.2 - 2.2
24/11:05pm 4.5 -11.5 0.3 74 1.6 WNW 74 82 40 44 1000.3 - 2.2
24/11:02pm 3.9 -6.3 1.1 82 1.1 W 44 67 24 36 1000.9 - 2.2
24/11:00pm 3.8 -5.8 1.4 84 0.9 W 41 50 22 27 1000.9 - 2.2
24/10:58pm 3.7 -5.5 1.3 84 0.9 W 39 50 21 27 1001.0 - 2.2
24/10:36pm 3.9 -6.4 0.2 77 1.4 WSW 44 63 24 34 1001.0 - 1.8
24/10:30pm 4.0 -7.1 0.3 77 1.4 W 48 65 26 35 1001.0 - 1.8
24/10:04pm 5.3 -8.6 0.1 69 2.0 W 63 82 34 44 1000.1 - 1.8
24/10:00pm 5.1 -9.4 -0.9 65 2.3 W 65 82 35 44 999.9 - 1.8
24/09:30pm 4.9 -9.8 0.3 72 1.8 W 67 85 36 46 998.9 - 1.8
24/09:29pm 4.7 -9.6 0.5 74 1.6 W 65 83 35 45 999.2 - 1.8
24/09:27pm 4.8 -8.9 1.8 81 1.2 WNW 63 72 34 39 998.8 - 1.8
24/09:10pm 3.9 -6.2 1.8 86 0.8 W 44 63 24 34 999.2 - 1.8
24/09:09pm 3.8 -6.7 1.7 86 0.8 W 46 63 25 34 999.1 - 1.8
24/09:00pm 3.9 -7.3 1.8 86 0.8 SW 50 69 27 37 999.0 999.1 1.8
24/08:49pm 4.3 -7.8 1.0 79 1.3 SW 54 69 29 37 998.6 - 1.8
24/08:31pm 3.6 -10.9 1.6 87 0.8 WNW 67 85 36 46 997.8 - 1.8
24/08:30pm 3.4 -11.4 1.6 88 0.7 WNW 69 85 37 46 997.7 - 1.8
24/08:27pm 3.2 -12.7 0.9 85 0.9 WNW 74 85 40 46 997.6 - 1.8
24/08:26pm 3.5 -8.5 1.4 86 0.8 W 54 85 29 46 997.4 - 1.8
24/08:21pm 3.4 -6.7 1.6 88 0.7 W 44 65 24 35 997.9 - 1.6
24/08:11pm 2.9 -6.3 1.3 89 0.6 W 39 50 21 27 998.2 - 1.6
24/08:07pm 2.7 -9.4 0.9 88 0.7 SW 54 72 29 39 998.2 - 1.6
24/08:05pm 2.8 -9.9 0.9 87 0.7 SW 57 72 31 39 998.1 - 1.6
24/08:01pm 3.1 -8.5 1.5 89 0.6 W 52 72 28 39 998.0 - 1.6
24/08:00pm 3.3 -7.9 2.0 91 0.5 W 50 67 27 36 997.9 - 1.6
24/07:56pm 2.7 -8.6 1.2 90 0.6 W 50 67 27 36 997.9 - 1.6
24/07:54pm 2.5 -11.7 0.7 88 0.7 SW 65 83 35 45 997.8 - 1.6
24/07:51pm 3.0 -12.6 0.7 85 0.9 SW 72 83 39 45 997.8 - 1.6
24/07:30pm 3.7 -7.2 1.6 86 0.8 W 48 67 26 36 997.2 - 1.4
24/07:21pm 3.0 -7.0 0.7 85 0.9 WSW 43 63 23 34 996.9 - 1.4
24/07:12pm 2.2 -12.8 0.6 89 0.6 W 69 87 37 47 997.2 - 1.4
24/07:11pm 2.3 -12.9 0.7 89 0.6 W 70 87 38 47 997.3 - 1.4
24/07:03pm 2.8 -16.4 0.4 84 0.9 WSW 91 109 49 59 997.1 - 1.4
24/07:00pm 4.3 -10.1 2.2 86 0.8 W 67 95 36 51 996.4 - 1.4
24/06:59pm 4.3 -11.1 1.8 84 1.0 W 72 95 39 51 996.3 - 1.4
24/06:53pm 4.6 -13.2 -0.4 70 1.9 WNW 83 106 45 57 995.9 - 1.4
24/06:30pm 5.8 -12.8 -0.7 63 2.5 WNW 87 106 47 57 993.6 - 1.4
24/06:09pm 6.2 -13.6 1.5 72 1.9 WNW 95 113 51 61 992.7 - 1.4
24/06:05pm 5.7 -14.9 0.1 67 2.2 WNW 98 113 53 61 992.2 - 1.4
24/06:00pm 5.5 -11.3 -0.1 67 2.2 WNW 78 104 42 56 993.1 993.2 1.4
24/05:53pm 5.7 -9.7 1.4 74 1.7 WNW 72 104 39 56 992.8 - 1.4
24/05:52pm 5.4 -10.1 0.8 72 1.8 WNW 72 83 39 45 992.7 - 1.4
24/05:39pm 4.8 -14.8 0.6 74 1.6 W 93 111 50 60 993.1 - 1.4
24/05:37pm 5.1 -15.0 0.7 73 1.7 W 96 111 52 60 992.8 - 1.4
24/05:35pm 5.1 -11.3 0.1 70 1.9 W 76 98 41 53 992.9 - 1.4
24/05:30pm 4.8 -12.6 -1.8 62 2.4 W 80 91 43 49 993.0 - 1.4
24/05:27pm 5.4 -15.2 0.0 68 2.1 WNW 98 124 53 67 992.0 - 1.4
24/05:20pm 6.1 -13.9 1.6 73 1.8 NW 96 124 52 67 990.0 - 1.4
24/05:00pm 5.4 -14.7 1.0 73 1.7 WNW 96 113 52 61 990.6 - 1.4
24/04:32pm 4.7 -14.2 2.4 85 0.9 WNW 91 109 49 59 991.3 - 1.4
24/04:30pm 4.2 -15.5 1.9 85 0.9 WNW 95 109 51 59 991.2 - 1.4
24/04:05pm 5.4 -10.0 1.5 76 1.6 WNW 72 93 39 50 990.8 - 1.2
24/04:00pm 5.2 -10.7 1.0 74 1.7 WNW 74 87 40 47 991.6 - 1.2
24/03:30pm 5.7 -11.1 2.4 79 1.4 W 80 100 43 54 991.0 - 1.2
24/03:11pm 4.8 -12.5 1.6 80 1.3 W 82 113 44 61 990.0 - 1.2
24/03:06pm 6.1 -10.0 2.2 76 1.6 W 76 95 41 51 990.0 - 1.2
24/03:04pm 6.3 -9.8 2.2 75 1.7 W 76 87 41 47 990.2 - 1.2
24/03:00pm 6.8 -13.5 1.9 71 2.0 WNW 98 124 53 67 989.0 989.0 1.2
24/02:58pm 6.8 -14.3 1.5 69 2.2 WNW 102 124 55 67 989.3 - 1.2
24/02:30pm 7.4 -13.0 3.6 77 1.6 NW 100 120 54 65 987.1 - 1.2
24/02:00pm 5.1 -18.0 2.5 83 1.1 WNW 113 135 61 73 987.1 - 1.2
24/01:58pm 5.0 -18.8 2.5 84 1.0 WNW 117 135 63 73 987.4 - 1.2
24/01:56pm 5.0 -20.2 2.4 83 1.1 WNW 124 135 67 73 987.0 - 1.0
24/01:49pm 6.0 -15.5 1.5 73 1.8 WNW 104 122 56 66 988.3 - 1.0
24/01:47pm 6.5 -15.5 1.0 68 2.2 WNW 106 122 57 66 988.5 - 1.0
24/01:30pm 7.2 -13.4 2.5 72 2.0 NW 100 120 54 65 986.5 - 1.0
24/01:20pm 7.1 -11.7 3.0 75 1.7 NW 91 109 49 59 987.3 - 1.0
24/01:00pm 6.4 -12.2 3.9 84 1.1 WNW 91 106 49 57 988.1 - 1.0
24/12:48pm 6.2 -14.1 3.9 85 1.0 WNW 100 119 54 64 988.4 - 1.0
24/12:45pm 6.9 -14.7 3.3 78 1.5 WNW 106 120 57 65 988.3 - 1.0
24/12:37pm 7.4 -15.6 2.9 73 1.9 NW 113 120 61 65 986.3 - 1.0
24/12:31pm 7.5 -11.5 3.9 78 1.6 NW 93 113 50 61 987.1 - 1.0
24/12:30pm 7.6 -11.3 4.4 80 1.4 NW 93 106 50 57 987.3 - 1.0
24/12:09pm 6.0 -15.3 3.0 81 1.3 WNW 104 122 56 66 988.6 - 1.0
24/12:08pm 6.2 -15.6 2.3 76 1.6 WNW 106 122 57 66 988.6 - 1.0
24/12:00pm 7.6 -15.3 3.6 76 1.7 NW 113 122 61 66 986.2 986.2 1.0
24/11:48am 7.4 -11.5 4.7 83 1.2 NW 93 111 50 60 986.4 - 1.0
24/11:45am 7.7 -9.9 5.2 84 1.1 WNW 87 96 47 52 987.3 - 1.0
24/11:32am 6.9 -15.3 4.9 87 0.9 WNW 111 130 60 70 986.8 - 1.0
24/11:30am 6.7 -16.0 4.7 87 0.9 WNW 113 130 61 70 986.8 - 1.0
24/11:08am 6.4 -14.9 4.7 89 0.7 NW 106 124 57 67 985.8 - 0.8
24/11:06am 6.7 -16.0 4.5 86 1.0 NW 113 124 61 67 985.6 - 0.8
24/11:03am 8.6 -10.3 4.6 76 1.8 NW 93 124 50 67 986.2 - 0.6
24/11:00am 8.5 -10.5 3.9 73 2.0 NW 93 109 50 59 985.9 - 0.6
24/10:30am 8.4 -11.8 4.4 76 1.8 NW 100 124 54 67 985.9 - 0.6
24/10:00am 8.5 -11.2 5.1 79 1.5 NW 98 119 53 64 987.0 - 0.4
24/09:49am 7.9 -11.8 5.0 82 1.3 NW 98 117 53 63 986.8 - 0.4
24/09:40am 7.3 -13.2 5.1 86 1.0 NW 102 115 55 62 986.7 - 0.4
24/09:31am 6.8 -17.8 3.4 79 1.4 NW 122 141 66 76 987.0 - 0.2
24/09:30am 8.1 -9.2 4.7 79 1.5 NW 85 141 46 76 987.0 - 0.2
24/09:29am 8.7 -7.1 5.8 82 1.3 NW 78 113 42 61 988.5 - 0.2
24/09:26am 8.7 -6.6 6.3 85 1.1 NW 76 87 41 47 988.6 - 0.2
24/09:02am 7.6 -11.5 5.4 86 1.0 NW 95 122 51 66 987.4 - 0.0
24/09:00am 7.5 -11.2 5.3 86 1.0 NW 93 107 50 58 988.7 988.7 4.8
24/08:52am 5.7 -12.8 4.3 91 0.6 NW 91 107 49 58 988.3 - 4.8
24/08:48am 5.8 -18.7 2.1 77 1.5 NW 120 145 65 78 986.7 - 4.6
24/08:47am 8.1 -9.5 3.2 71 2.1 NW 85 145 46 78 988.8 - 4.6
24/08:35am 9.2 -7.2 4.4 72 2.1 NW 80 98 43 53 989.4 - 4.6
24/08:30am 9.2 -7.7 4.2 71 2.2 NW 82 98 44 53 989.6 - 4.6
24/08:05am 8.8 -9.1 3.6 70 2.3 NW 87 106 47 57 989.3 - 4.6
24/08:00am 8.8 -8.6 4.6 75 1.9 NW 85 100 46 54 989.9 - 4.6
24/07:30am 9.2 -6.5 4.4 72 2.1 NW 76 95 41 51 990.8 - 4.4
24/07:01am 8.5 -8.3 5.4 81 1.4 NW 83 102 45 55 991.2 - 4.4
24/07:00am 8.4 -8.8 5.3 81 1.4 NW 85 102 46 55 991.1 - 4.4
24/06:30am 8.4 -7.7 4.4 76 1.8 NW 78 98 42 53 991.2 - 4.4
24/06:18am 8.0 -9.0 4.6 79 1.5 NW 83 102 45 55 991.1 - 4.4
24/06:00am 8.6 -8.4 4.4 75 1.9 NW 83 98 45 53 991.4 991.4 4.4
24/05:30am 8.1 -7.2 6.1 87 0.9 NW 76 95 41 51 991.9 - 4.4
24/05:01am 8.8 -6.1 4.6 75 1.9 NW 72 91 39 49 992.7 - 4.0
24/05:00am 8.9 -6.3 4.7 75 1.9 NW 74 91 40 49 992.6 - 4.0
24/04:30am 8.0 -8.8 5.6 85 1.1 NW 83 98 45 53 992.7 - 4.0
24/04:29am 8.0 -9.1 5.8 86 1.0 NW 85 104 46 56 992.8 - 4.0
24/04:16am 8.0 -11.4 4.0 76 1.7 NW 95 109 51 59 992.9 - 4.0
24/04:13am 8.7 -6.3 4.1 73 2.0 NW 72 95 39 51 993.0 - 4.0
24/04:00am 8.7 -6.3 4.1 73 2.0 NW 72 83 39 45 993.4 - 4.0

Other formats

Comma delimited format used in spreadsheet applications
http://www.bom.gov.au/fwo/IDT60801/IDT60801.94962.axf

JavaScript Object Notation format (JSON) in row-major order
http://www.bom.gov.au/fwo/IDT60801/IDT60801.94962.json

Data quality

Most of these data are generated automatically and are frequently updated. Quality checks on data are not normally performed. It is possible for incorrect values to appear. Refer to information at About Latest Weather Observations and please check the disclaimer before using these data.